< Typhoon 200207 2002 Season Typhoon 200209 >
Typhoon 200208 (NAKRI)
General InformationTrack Information on Google MapsDetailed Wind InformationList of All Images || Disaster Info.ResourceGoogle EarthGE AnimationAtom FeedGeoJSON
Detalied Best Track (Time Zone = UTC)
Year Month Day Hour Lat. Long. Pressure (hPa) Wind (kt) Class Image Chart
2002 7 7 18 21.3 116.4 996 0 2 Image Chart
2002 7 8 00 21.2 116.9 994 0 2 Image Chart
2002 7 8 06 21.2 117.3 992 0 2 Image Chart
2002 7 8 12 22.1 118.4 992 0 2 Image Chart
2002 7 8 18 22.8 118.9 988 0 2 Image Chart
2002 7 9 00 23.1 119.3 985 40 3 Image Chart
2002 7 9 06 23.9 120.0 985 40 3 Image Chart
2002 7 9 12 24.6 120.6 990 40 3 Image Chart
2002 7 9 18 24.3 121.7 988 40 3 Image Chart
2002 7 10 00 24.7 122.2 988 40 3 Image Chart
2002 7 10 03 24.7 122.3 988 40 3 Image Chart
2002 7 10 06 24.7 122.5 988 40 3 Image Chart
2002 7 10 09 25.5 122.9 990 40 3 Image Chart
2002 7 10 12 25.4 123.4 990 50 4 Image Chart
2002 7 10 15 25.4 123.7 990 40 3 Image Chart
2002 7 10 18 25.4 124.0 990 40 3 Image Chart
2002 7 10 21 25.2 124.6 990 40 3 Image Chart
2002 7 11 00 25.0 125.2 990 40 3 Image Chart
2002 7 11 03 25.2 125.4 990 40 3 Image Chart
2002 7 11 06 25.4 125.7 990 35 3 Image Chart
2002 7 11 09 25.5 126.0 990 35 3 Image Chart
2002 7 11 12 25.6 126.3 990 35 3 Image Chart
2002 7 11 15 25.6 126.4 990 35 3 Image Chart
2002 7 11 18 25.6 126.6 990 35 3 Image Chart
2002 7 11 21 25.7 126.7 992 35 3 Image Chart
2002 7 12 00 25.7 126.7 992 35 3 Image Chart
2002 7 12 03 25.9 126.8 992 35 3 Image Chart
2002 7 12 06 26.2 126.8 987 35 3 Image Chart
2002 7 12 09 26.3 126.7 983 40 3 Image Chart
2002 7 12 12 26.5 126.6 990 35 3 Image Chart
2002 7 12 15 27.3 126.5 994 0 2 Image Chart
2002 7 12 18 28.0 126.5 994 0 2 Image Chart
2002 7 13 00 28.8 126.4 994 0 2 Image Chart
2002 7 13 06 30.3 126.5 994 0 2 Image Chart
2002 7 13 12 32.1 126.4 996 0 2 Image Chart
Japan Meteorological Agency Best Track Data | Correction Date : 2006-01-18
< Typhoon 200207 2002 Season Typhoon 200209 >

Help